Cromwell, Alabama
Current Conditions -  °F | °C
As of 8:35 AM on Wednesday 22 Oct 2014 (Local Time) from KDYA Reporting Station
Clear Clear  
Wind Chill: 55°   Ceiling: Unl
Heat Index: 55°   Visibility: 10mi
Dew Point: 55°   Wind: 3mph
Humidity: 100%   Direction: 20°NNE
Pressure: 30.16"   Gusts: NA
Location:  32.23°N, 88.27°W
Report Text: KDYA 221335Z AUTO 02003KT 10SM CLR 13/13 A3016 RMK AO2 T01260126
Loading
Personal Weather Stations






























Interactive Weather Map
Tropical Storm Tracking
New forecast layout! Learn more

10-Day Weather Forecast

Advertisements
Track Severe Weather on mobile